sensor_id;sensor_type;location;lat;lon;timestamp;temperature;humidity
53073;DHT22;38955;48.916;2.336;2023-06-04T00:00:33;18.30;76.40
53073;DHT22;38955;48.916;2.336;2023-06-04T00:02:37;18.30;76.50
53073;DHT22;38955;48.916;2.336;2023-06-04T00:04:39;18.30;76.60
53073;DHT22;38955;48.916;2.336;2023-06-04T00:06:41;18.20;76.50
53073;DHT22;38955;48.916;2.336;2023-06-04T00:08:44;18.20;76.60
53073;DHT22;38955;48.916;2.336;2023-06-04T00:10:46;18.10;76.70
53073;DHT22;38955;48.916;2.336;2023-06-04T00:12:53;18.10;76.80
53073;DHT22;38955;48.916;2.336;2023-06-04T00:14:55;18.00;76.80
53073;DHT22;38955;48.916;2.336;2023-06-04T00:16:57;18.00;76.90
53073;DHT22;38955;48.916;2.336;2023-06-04T00:19:01;18.00;77.00
53073;DHT22;38955;48.916;2.336;2023-06-04T00:21:03;17.90;77.00
53073;DHT22;38955;48.916;2.336;2023-06-04T00:23:05;17.90;77.10
53073;DHT22;38955;48.916;2.336;2023-06-04T00:25:08;17.90;77.00
53073;DHT22;38955;48.916;2.336;2023-06-04T00:27:10;17.90;77.20
53073;DHT22;38955;48.916;2.336;2023-06-04T00:29:12;17.90;77.30
53073;DHT22;38955;48.916;2.336;2023-06-04T00:31:14;17.90;77.40
53073;DHT22;38955;48.916;2.336;2023-06-04T00:33:17;17.80;77.40
53073;DHT22;38955;48.916;2.336;2023-06-04T00:35:21;17.80;77.50
53073;DHT22;38955;48.916;2.336;2023-06-04T00:37:23;17.80;77.50
53073;DHT22;38955;48.916;2.336;2023-06-04T00:39:25;17.70;78.30
53073;DHT22;38955;48.916;2.336;2023-06-04T00:41:27;17.60;78.50
53073;DHT22;38955;48.916;2.336;2023-06-04T00:43:30;17.60;78.10
53073;DHT22;38955;48.916;2.336;2023-06-04T00:45:33;17.50;78.20
53073;DHT22;38955;48.916;2.336;2023-06-04T00:47:36;17.50;78.20
53073;DHT22;38955;48.916;2.336;2023-06-04T00:49:39;17.50;78.20
53073;DHT22;38955;48.916;2.336;2023-06-04T00:51:42;17.50;78.40
53073;DHT22;38955;48.916;2.336;2023-06-04T00:53:44;17.50;78.40
53073;DHT22;38955;48.916;2.336;2023-06-04T00:55:47;17.40;78.40
53073;DHT22;38955;48.916;2.336;2023-06-04T00:57:49;17.40;78.40
53073;DHT22;38955;48.916;2.336;2023-06-04T00:59:51;17.40;78.50
53073;DHT22;38955;48.916;2.336;2023-06-04T01:01:57;17.30;78.70
53073;DHT22;38955;48.916;2.336;2023-06-04T01:04:01;17.30;78.80
53073;DHT22;38955;48.916;2.336;2023-06-04T01:06:10;17.30;78.60
53073;DHT22;38955;48.916;2.336;2023-06-04T01:08:15;17.20;78.80
53073;DHT22;38955;48.916;2.336;2023-06-04T01:10:18;17.30;78.80
53073;DHT22;38955;48.916;2.336;2023-06-04T01:12:25;17.20;78.80
53073;DHT22;38955;48.916;2.336;2023-06-04T01:14:32;17.20;78.80
53073;DHT22;38955;48.916;2.336;2023-06-04T01:16:40;17.20;78.80
53073;DHT22;38955;48.916;2.336;2023-06-04T01:18:46;17.20;78.80
53073;DHT22;38955;48.916;2.336;2023-06-04T01:20:49;17.10;78.90
53073;DHT22;38955;48.916;2.336;2023-06-04T01:23:25;17.00;79.30
53073;DHT22;38955;48.916;2.336;2023-06-04T01:25:38;17.10;79.10
53073;DHT22;38955;48.916;2.336;2023-06-04T01:27:54;17.00;79.10
53073;DHT22;38955;48.916;2.336;2023-06-04T01:29:58;17.00;79.00
53073;DHT22;38955;48.916;2.336;2023-06-04T01:32:00;17.00;79.00
53073;DHT22;38955;48.916;2.336;2023-06-04T01:34:02;17.00;79.70
53073;DHT22;38955;48.916;2.336;2023-06-04T01:36:06;16.90;79.20
53073;DHT22;38955;48.916;2.336;2023-06-04T01:38:12;16.90;79.20
53073;DHT22;38955;48.916;2.336;2023-06-04T01:40:15;16.90;79.20
53073;DHT22;38955;48.916;2.336;2023-06-04T01:42:17;16.90;79.20
53073;DHT22;38955;48.916;2.336;2023-06-04T01:44:19;16.90;79.30
53073;DHT22;38955;48.916;2.336;2023-06-04T01:46:24;16.80;79.30
53073;DHT22;38955;48.916;2.336;2023-06-04T01:48:26;16.80;79.40
53073;DHT22;38955;48.916;2.336;2023-06-04T01:50:28;16.80;79.30
53073;DHT22;38955;48.916;2.336;2023-06-04T01:52:30;16.70;79.30
53073;DHT22;38955;48.916;2.336;2023-06-04T01:54:32;16.70;79.20
53073;DHT22;38955;48.916;2.336;2023-06-04T01:56:37;16.70;79.40
53073;DHT22;38955;48.916;2.336;2023-06-04T01:58:39;16.60;79.30
53073;DHT22;38955;48.916;2.336;2023-06-04T02:00:41;16.70;79.40
53073;DHT22;38955;48.916;2.336;2023-06-04T02:02:45;16.60;79.30
53073;DHT22;38955;48.916;2.336;2023-06-04T02:04:48;16.60;79.20
53073;DHT22;38955;48.916;2.336;2023-06-04T02:06:53;16.60;79.30
53073;DHT22;38955;48.916;2.336;2023-06-04T02:08:58;16.60;79.40
53073;DHT22;38955;48.916;2.336;2023-06-04T02:11:02;16.50;79.40
53073;DHT22;38955;48.916;2.336;2023-06-04T02:13:06;16.50;79.50
53073;DHT22;38955;48.916;2.336;2023-06-04T02:15:10;16.50;79.40
53073;DHT22;38955;48.916;2.336;2023-06-04T02:17:12;16.60;79.40
53073;DHT22;38955;48.916;2.336;2023-06-04T02:19:15;16.50;79.40
53073;DHT22;38955;48.916;2.336;2023-06-04T02:21:17;16.50;79.50
53073;DHT22;38955;48.916;2.336;2023-06-04T02:23:19;16.50;80.10
53073;DHT22;38955;48.916;2.336;2023-06-04T02:25:22;16.50;79.60
53073;DHT22;38955;48.916;2.336;2023-06-04T02:27:24;16.40;79.60
53073;DHT22;38955;48.916;2.336;2023-06-04T02:29:27;16.40;79.50
53073;DHT22;38955;48.916;2.336;2023-06-04T02:31:30;16.40;79.50
53073;DHT22;38955;48.916;2.336;2023-06-04T02:33:32;16.40;79.30
53073;DHT22;38955;48.916;2.336;2023-06-04T02:35:35;16.40;79.40
53073;DHT22;38955;48.916;2.336;2023-06-04T02:37:37;16.40;79.40
53073;DHT22;38955;48.916;2.336;2023-06-04T02:39:39;16.40;79.50
53073;DHT22;38955;48.916;2.336;2023-06-04T02:41:41;16.40;79.60
53073;DHT22;38955;48.916;2.336;2023-06-04T02:43:44;16.40;79.50
53073;DHT22;38955;48.916;2.336;2023-06-04T02:45:47;16.40;80.00
53073;DHT22;38955;48.916;2.336;2023-06-04T02:47:50;16.30;79.50
53073;DHT22;38955;48.916;2.336;2023-06-04T02:49:52;16.30;79.60
53073;DHT22;38955;48.916;2.336;2023-06-04T02:51:54;16.30;79.70
53073;DHT22;38955;48.916;2.336;2023-06-04T02:53:56;16.30;79.50
53073;DHT22;38955;48.916;2.336;2023-06-04T02:55:58;16.30;79.60
53073;DHT22;38955;48.916;2.336;2023-06-04T02:58:01;16.30;79.70
53073;DHT22;38955;48.916;2.336;2023-06-04T03:00:05;16.30;79.70
53073;DHT22;38955;48.916;2.336;2023-06-04T03:02:16;16.30;79.60
53073;DHT22;38955;48.916;2.336;2023-06-04T03:04:18;16.20;79.50
53073;DHT22;38955;48.916;2.336;2023-06-04T03:06:21;16.20;79.50
53073;DHT22;38955;48.916;2.336;2023-06-04T03:08:23;16.20;79.50
53073;DHT22;38955;48.916;2.336;2023-06-04T03:10:25;16.20;79.60
53073;DHT22;38955;48.916;2.336;2023-06-04T03:12:28;16.20;79.50
53073;DHT22;38955;48.916;2.336;2023-06-04T03:14:30;16.10;79.60
53073;DHT22;38955;48.916;2.336;2023-06-04T03:16:35;16.10;79.70
53073;DHT22;38955;48.916;2.336;2023-06-04T03:18:43;16.00;79.70
53073;DHT22;38955;48.916;2.336;2023-06-04T03:20:46;16.10;79.80
53073;DHT22;38955;48.916;2.336;2023-06-04T03:22:48;16.00;79.80
53073;DHT22;38955;48.916;2.336;2023-06-04T03:24:50;16.00;79.90
53073;DHT22;38955;48.916;2.336;2023-06-04T03:26:54;16.00;79.90
53073;DHT22;38955;48.916;2.336;2023-06-04T03:28:56;16.00;80.00
53073;DHT22;38955;48.916;2.336;2023-06-04T03:30:58;16.00;80.00
53073;DHT22;38955;48.916;2.336;2023-06-04T03:33:01;16.00;79.90
53073;DHT22;38955;48.916;2.336;2023-06-04T03:35:07;16.00;80.00
53073;DHT22;38955;48.916;2.336;2023-06-04T03:37:09;15.90;80.10
53073;DHT22;38955;48.916;2.336;2023-06-04T03:39:11;15.90;80.10
53073;DHT22;38955;48.916;2.336;2023-06-04T03:41:13;15.90;80.10
53073;DHT22;38955;48.916;2.336;2023-06-04T03:43:15;15.90;80.30
53073;DHT22;38955;48.916;2.336;2023-06-04T03:45:17;15.90;80.40
53073;DHT22;38955;48.916;2.336;2023-06-04T03:47:19;15.90;80.20
53073;DHT22;38955;48.916;2.336;2023-06-04T03:49:22;15.90;80.10
53073;DHT22;38955;48.916;2.336;2023-06-04T03:51:25;15.90;80.00
53073;DHT22;38955;48.916;2.336;2023-06-04T03:53:27;15.80;80.20
53073;DHT22;38955;48.916;2.336;2023-06-04T03:55:29;15.80;80.10
53073;DHT22;38955;48.916;2.336;2023-06-04T03:57:34;15.80;80.10
53073;DHT22;38955;48.916;2.336;2023-06-04T03:59:36;15.80;80.10
53073;DHT22;38955;48.916;2.336;2023-06-04T04:01:38;15.90;80.70
53073;DHT22;38955;48.916;2.336;2023-06-04T04:03:41;15.90;80.20
53073;DHT22;38955;48.916;2.336;2023-06-04T04:05:45;15.90;80.30
53073;DHT22;38955;48.916;2.336;2023-06-04T04:07:48;15.90;80.10
53073;DHT22;38955;48.916;2.336;2023-06-04T04:09:51;15.90;80.00
53073;DHT22;38955;48.916;2.336;2023-06-04T04:11:54;15.80;80.40
53073;DHT22;38955;48.916;2.336;2023-06-04T04:13:56;15.70;80.40
53073;DHT22;38955;48.916;2.336;2023-06-04T04:15:59;15.60;80.50
53073;DHT22;38955;48.916;2.336;2023-06-04T04:18:02;15.70;80.50
53073;DHT22;38955;48.916;2.336;2023-06-04T04:20:05;15.70;80.50
53073;DHT22;38955;48.916;2.336;2023-06-04T04:22:09;15.80;80.20
53073;DHT22;38955;48.916;2.336;2023-06-04T04:24:22;15.80;80.40
53073;DHT22;38955;48.916;2.336;2023-06-04T04:26:27;15.80;80.00
53073;DHT22;38955;48.916;2.336;2023-06-04T04:28:30;15.80;79.90
53073;DHT22;38955;48.916;2.336;2023-06-04T04:30:34;15.80;80.00
53073;DHT22;38955;48.916;2.336;2023-06-04T04:32:37;15.90;80.00
53073;DHT22;38955;48.916;2.336;2023-06-04T04:34:50;15.90;80.10
53073;DHT22;38955;48.916;2.336;2023-06-04T04:36:54;15.90;79.80
53073;DHT22;38955;48.916;2.336;2023-06-04T04:38:56;15.90;80.10
53073;DHT22;38955;48.916;2.336;2023-06-04T04:41:01;15.80;80.10
53073;DHT22;38955;48.916;2.336;2023-06-04T04:43:03;15.80;80.00
53073;DHT22;38955;48.916;2.336;2023-06-04T04:45:06;15.90;80.10
53073;DHT22;38955;48.916;2.336;2023-06-04T04:47:09;15.90;80.00
53073;DHT22;38955;48.916;2.336;2023-06-04T04:49:11;15.90;79.90
53073;DHT22;38955;48.916;2.336;2023-06-04T04:51:13;15.90;80.20
53073;DHT22;38955;48.916;2.336;2023-06-04T04:53:15;15.90;79.80
53073;DHT22;38955;48.916;2.336;2023-06-04T04:55:17;16.00;79.60
53073;DHT22;38955;48.916;2.336;2023-06-04T04:57:21;15.90;79.40
53073;DHT22;38955;48.916;2.336;2023-06-04T04:59:23;16.00;79.40
53073;DHT22;38955;48.916;2.336;2023-06-04T05:01:25;16.00;79.70
53073;DHT22;38955;48.916;2.336;2023-06-04T05:03:27;16.00;79.80
53073;DHT22;38955;48.916;2.336;2023-06-04T05:05:29;16.00;80.00
53073;DHT22;38955;48.916;2.336;2023-06-04T05:07:32;16.10;79.70
53073;DHT22;38955;48.916;2.336;2023-06-04T05:09:34;16.10;80.30
53073;DHT22;38955;48.916;2.336;2023-06-04T05:11:36;16.00;79.50
53073;DHT22;38955;48.916;2.336;2023-06-04T05:13:42;16.00;79.20
53073;DHT22;38955;48.916;2.336;2023-06-04T05:15:44;16.00;79.20
53073;DHT22;38955;48.916;2.336;2023-06-04T05:17:47;16.10;79.10
53073;DHT22;38955;48.916;2.336;2023-06-04T05:19:49;16.10;78.90
53073;DHT22;38955;48.916;2.336;2023-06-04T05:21:51;16.10;79.00
53073;DHT22;38955;48.916;2.336;2023-06-04T05:23:53;16.00;78.80
53073;DHT22;38955;48.916;2.336;2023-06-04T05:25:56;16.00;78.70
53073;DHT22;38955;48.916;2.336;2023-06-04T05:27:58;15.90;78.90
53073;DHT22;38955;48.916;2.336;2023-06-04T05:30:01;15.90;79.00
53073;DHT22;38955;48.916;2.336;2023-06-04T05:32:05;15.80;79.10
53073;DHT22;38955;48.916;2.336;2023-06-04T05:34:07;15.80;79.40
53073;DHT22;38955;48.916;2.336;2023-06-04T05:36:10;15.70;79.50
53073;DHT22;38955;48.916;2.336;2023-06-04T05:38:12;15.70;79.50
53073;DHT22;38955;48.916;2.336;2023-06-04T05:40:19;15.70;79.50
53073;DHT22;38955;48.916;2.336;2023-06-04T05:42:21;15.80;79.40
53073;DHT22;38955;48.916;2.336;2023-06-04T05:44:24;15.80;79.30
53073;DHT22;38955;48.916;2.336;2023-06-04T05:46:27;15.80;79.20
53073;DHT22;38955;48.916;2.336;2023-06-04T05:48:32;15.90;79.20
53073;DHT22;38955;48.916;2.336;2023-06-04T05:50:34;15.90;79.10
53073;DHT22;38955;48.916;2.336;2023-06-04T05:52:36;15.90;79.10
53073;DHT22;38955;48.916;2.336;2023-06-04T05:54:38;15.90;79.10
53073;DHT22;38955;48.916;2.336;2023-06-04T05:56:40;15.90;79.30
53073;DHT22;38955;48.916;2.336;2023-06-04T05:58:43;16.00;79.20
53073;DHT22;38955;48.916;2.336;2023-06-04T06:00:45;16.00;78.90
53073;DHT22;38955;48.916;2.336;2023-06-04T06:02:49;16.00;78.80
53073;DHT22;38955;48.916;2.336;2023-06-04T06:04:51;16.00;78.90
53073;DHT22;38955;48.916;2.336;2023-06-04T06:06:54;16.10;78.90
53073;DHT22;38955;48.916;2.336;2023-06-04T06:08:57;16.10;78.50
53073;DHT22;38955;48.916;2.336;2023-06-04T06:11:00;16.00;78.70
53073;DHT22;38955;48.916;2.336;2023-06-04T06:13:02;16.10;78.90
53073;DHT22;38955;48.916;2.336;2023-06-04T06:15:06;16.10;78.70
53073;DHT22;38955;48.916;2.336;2023-06-04T06:17:08;16.00;79.30
53073;DHT22;38955;48.916;2.336;2023-06-04T06:19:12;16.20;78.70
53073;DHT22;38955;48.916;2.336;2023-06-04T06:21:14;16.20;78.20
53073;DHT22;38955;48.916;2.336;2023-06-04T06:23:16;16.20;79.00
53073;DHT22;38955;48.916;2.336;2023-06-04T06:25:20;16.20;78.40
53073;DHT22;38955;48.916;2.336;2023-06-04T06:27:22;16.20;78.50
53073;DHT22;38955;48.916;2.336;2023-06-04T06:29:25;16.20;78.30
53073;DHT22;38955;48.916;2.336;2023-06-04T06:31:27;16.30;78.60
53073;DHT22;38955;48.916;2.336;2023-06-04T06:33:29;16.40;78.40
53073;DHT22;38955;48.916;2.336;2023-06-04T06:35:34;16.50;78.40
53073;DHT22;38955;48.916;2.336;2023-06-04T06:37:36;16.60;78.30
53073;DHT22;38955;48.916;2.336;2023-06-04T06:39:43;16.60;78.20
53073;DHT22;38955;48.916;2.336;2023-06-04T06:41:45;16.50;78.10
53073;DHT22;38955;48.916;2.336;2023-06-04T06:43:48;16.60;78.80
53073;DHT22;38955;48.916;2.336;2023-06-04T06:45:50;16.70;77.90
53073;DHT22;38955;48.916;2.336;2023-06-04T06:47:52;16.70;78.10
53073;DHT22;38955;48.916;2.336;2023-06-04T06:49:54;16.80;78.10
53073;DHT22;38955;48.916;2.336;2023-06-04T06:51:58;16.90;78.10
53073;DHT22;38955;48.916;2.336;2023-06-04T06:54:00;16.90;77.80
53073;DHT22;38955;48.916;2.336;2023-06-04T06:56:02;16.90;77.70
53073;DHT22;38955;48.916;2.336;2023-06-04T06:58:05;17.00;77.80
53073;DHT22;38955;48.916;2.336;2023-06-04T07:00:08;17.20;77.50
53073;DHT22;38955;48.916;2.336;2023-06-04T07:02:10;17.40;77.60
53073;DHT22;38955;48.916;2.336;2023-06-04T07:04:12;17.50;77.00
53073;DHT22;38955;48.916;2.336;2023-06-04T07:06:15;17.70;77.00
53073;DHT22;38955;48.916;2.336;2023-06-04T07:08:19;18.00;76.20
53073;DHT22;38955;48.916;2.336;2023-06-04T07:10:21;18.00;75.90
53073;DHT22;38955;48.916;2.336;2023-06-04T07:12:23;18.20;75.50
53073;DHT22;38955;48.916;2.336;2023-06-04T07:14:25;18.10;75.50
53073;DHT22;38955;48.916;2.336;2023-06-04T07:16:28;18.10;74.70
53073;DHT22;38955;48.916;2.336;2023-06-04T07:18:30;18.20;74.90
53073;DHT22;38955;48.916;2.336;2023-06-04T07:20:32;18.20;75.00
53073;DHT22;38955;48.916;2.336;2023-06-04T07:22:35;18.20;74.80
53073;DHT22;38955;48.916;2.336;2023-06-04T07:24:40;18.30;74.60
53073;DHT22;38955;48.916;2.336;2023-06-04T07:26:42;18.40;75.10
53073;DHT22;38955;48.916;2.336;2023-06-04T07:28:44;18.50;74.80
53073;DHT22;38955;48.916;2.336;2023-06-04T07:30:47;18.60;74.60
53073;DHT22;38955;48.916;2.336;2023-06-04T07:32:49;18.70;73.80
53073;DHT22;38955;48.916;2.336;2023-06-04T07:34:51;18.80;74.20
53073;DHT22;38955;48.916;2.336;2023-06-04T07:36:53;18.90;74.00
53073;DHT22;38955;48.916;2.336;2023-06-04T07:38:55;19.20;74.00
53073;DHT22;38955;48.916;2.336;2023-06-04T07:40:59;19.20;73.90
53073;DHT22;38955;48.916;2.336;2023-06-04T07:43:01;19.30;73.30
53073;DHT22;38955;48.916;2.336;2023-06-04T07:45:04;19.30;73.30
53073;DHT22;38955;48.916;2.336;2023-06-04T07:47:07;19.30;73.00
53073;DHT22;38955;48.916;2.336;2023-06-04T07:49:09;19.30;72.80
53073;DHT22;38955;48.916;2.336;2023-06-04T07:51:13;19.30;72.80
53073;DHT22;38955;48.916;2.336;2023-06-04T07:53:15;19.30;73.10
53073;DHT22;38955;48.916;2.336;2023-06-04T07:55:17;19.30;72.80
53073;DHT22;38955;48.916;2.336;2023-06-04T07:57:20;19.30;72.90
53073;DHT22;38955;48.916;2.336;2023-06-04T07:59:22;19.50;73.40
53073;DHT22;38955;48.916;2.336;2023-06-04T08:01:25;19.70;72.70
53073;DHT22;38955;48.916;2.336;2023-06-04T08:03:27;19.80;72.90
53073;DHT22;38955;48.916;2.336;2023-06-04T08:05:29;19.90;72.90
53073;DHT22;38955;48.916;2.336;2023-06-04T08:07:32;20.00;72.90
53073;DHT22;38955;48.916;2.336;2023-06-04T08:09:34;20.20;72.90
53073;DHT22;38955;48.916;2.336;2023-06-04T08:11:37;20.30;71.80
53073;DHT22;38955;48.916;2.336;2023-06-04T08:13:41;20.10;72.40
53073;DHT22;38955;48.916;2.336;2023-06-04T08:15:43;20.10;72.40
53073;DHT22;38955;48.916;2.336;2023-06-04T08:17:45;20.30;72.50
53073;DHT22;38955;48.916;2.336;2023-06-04T08:19:47;20.40;72.60
53073;DHT22;38955;48.916;2.336;2023-06-04T08:21:50;20.50;72.40
53073;DHT22;38955;48.916;2.336;2023-06-04T08:23:52;20.50;72.20
53073;DHT22;38955;48.916;2.336;2023-06-04T08:25:54;20.60;72.30
53073;DHT22;38955;48.916;2.336;2023-06-04T08:27:57;20.80;72.20
53073;DHT22;38955;48.916;2.336;2023-06-04T08:30:00;20.90;72.00
53073;DHT22;38955;48.916;2.336;2023-06-04T08:32:02;20.90;71.70
53073;DHT22;38955;48.916;2.336;2023-06-04T08:34:06;20.80;72.20
53073;DHT22;38955;48.916;2.336;2023-06-04T08:36:08;21.00;72.40
53073;DHT22;38955;48.916;2.336;2023-06-04T08:38:10;21.00;72.10
53073;DHT22;38955;48.916;2.336;2023-06-04T08:40:14;21.10;72.30
53073;DHT22;38955;48.916;2.336;2023-06-04T08:42:22;21.20;71.10
53073;DHT22;38955;48.916;2.336;2023-06-04T08:44:29;21.30;71.00
53073;DHT22;38955;48.916;2.336;2023-06-04T08:46:33;21.30;70.60
53073;DHT22;38955;48.916;2.336;2023-06-04T08:48:38;21.30;69.80
53073;DHT22;38955;48.916;2.336;2023-06-04T08:50:42;21.20;70.40
53073;DHT22;38955;48.916;2.336;2023-06-04T08:52:47;21.30;70.60
53073;DHT22;38955;48.916;2.336;2023-06-04T08:54:51;21.50;69.80
53073;DHT22;38955;48.916;2.336;2023-06-04T08:56:56;21.60;69.40
53073;DHT22;38955;48.916;2.336;2023-06-04T08:59:02;21.70;69.10
53073;DHT22;38955;48.916;2.336;2023-06-04T09:01:04;21.60;69.00
53073;DHT22;38955;48.916;2.336;2023-06-04T09:03:08;21.70;69.00
53073;DHT22;38955;48.916;2.336;2023-06-04T09:05:19;21.90;68.00
53073;DHT22;38955;48.916;2.336;2023-06-04T09:07:22;22.00;68.10
53073;DHT22;38955;48.916;2.336;2023-06-04T09:09:25;22.20;67.90
53073;DHT22;38955;48.916;2.336;2023-06-04T09:11:34;22.10;66.40
53073;DHT22;38955;48.916;2.336;2023-06-04T09:13:38;22.00;66.80
53073;DHT22;38955;48.916;2.336;2023-06-04T09:15:41;22.10;66.20
53073;DHT22;38955;48.916;2.336;2023-06-04T09:17:44;22.20;66.40
53073;DHT22;38955;48.916;2.336;2023-06-04T09:19:47;22.30;65.70
53073;DHT22;38955;48.916;2.336;2023-06-04T09:21:50;22.40;65.60
53073;DHT22;38955;48.916;2.336;2023-06-04T09:23:53;22.50;64.80
53073;DHT22;38955;48.916;2.336;2023-06-04T09:25:56;22.70;64.50
53073;DHT22;38955;48.916;2.336;2023-06-04T09:28:05;22.50;64.20
53073;DHT22;38955;48.916;2.336;2023-06-04T09:30:08;22.50;63.50
53073;DHT22;38955;48.916;2.336;2023-06-04T09:32:12;22.60;64.30
53073;DHT22;38955;48.916;2.336;2023-06-04T09:34:14;22.60;62.90
53073;DHT22;38955;48.916;2.336;2023-06-04T09:36:18;22.50;62.50
53073;DHT22;38955;48.916;2.336;2023-06-04T09:38:20;22.60;62.70
53073;DHT22;38955;48.916;2.336;2023-06-04T09:40:23;22.70;62.50
53073;DHT22;38955;48.916;2.336;2023-06-04T09:42:26;22.70;62.50
53073;DHT22;38955;48.916;2.336;2023-06-04T09:44:28;22.90;61.40
53073;DHT22;38955;48.916;2.336;2023-06-04T09:46:31;22.90;61.10
53073;DHT22;38955;48.916;2.336;2023-06-04T09:48:34;23.00;59.70
53073;DHT22;38955;48.916;2.336;2023-06-04T09:50:36;22.90;59.10
53073;DHT22;38955;48.916;2.336;2023-06-04T09:52:45;23.00;59.10
53073;DHT22;38955;48.916;2.336;2023-06-04T09:54:47;23.00;59.20
53073;DHT22;38955;48.916;2.336;2023-06-04T09:56:54;23.10;58.90
53073;DHT22;38955;48.916;2.336;2023-06-04T09:59:01;23.20;58.80
53073;DHT22;38955;48.916;2.336;2023-06-04T10:01:05;23.10;58.80
53073;DHT22;38955;48.916;2.336;2023-06-04T10:03:11;23.20;58.60
53073;DHT22;38955;48.916;2.336;2023-06-04T10:05:17;23.10;58.80
53073;DHT22;38955;48.916;2.336;2023-06-04T10:07:24;23.10;59.60
53073;DHT22;38955;48.916;2.336;2023-06-04T10:09:29;23.10;57.70
53073;DHT22;38955;48.916;2.336;2023-06-04T10:11:35;23.20;58.80
53073;DHT22;38955;48.916;2.336;2023-06-04T10:13:43;23.30;58.90
53073;DHT22;38955;48.916;2.336;2023-06-04T10:15:47;23.40;59.20
53073;DHT22;38955;48.916;2.336;2023-06-04T10:17:50;23.50;58.70
53073;DHT22;38955;48.916;2.336;2023-06-04T10:19:53;23.60;58.80
53073;DHT22;38955;48.916;2.336;2023-06-04T10:21:56;23.50;59.20
53073;DHT22;38955;48.916;2.336;2023-06-04T10:23:58;23.40;58.80
53073;DHT22;38955;48.916;2.336;2023-06-04T10:26:02;23.40;59.70
53073;DHT22;38955;48.916;2.336;2023-06-04T10:28:05;23.40;59.60
53073;DHT22;38955;48.916;2.336;2023-06-04T10:30:08;23.50;60.10
53073;DHT22;38955;48.916;2.336;2023-06-04T10:32:10;23.60;59.90
53073;DHT22;38955;48.916;2.336;2023-06-04T10:34:13;23.60;59.70
53073;DHT22;38955;48.916;2.336;2023-06-04T10:36:17;23.70;59.80
53073;DHT22;38955;48.916;2.336;2023-06-04T10:38:20;23.60;59.50
53073;DHT22;38955;48.916;2.336;2023-06-04T10:40:31;23.60;59.30
53073;DHT22;38955;48.916;2.336;2023-06-04T10:42:40;23.50;60.00
53073;DHT22;38955;48.916;2.336;2023-06-04T10:44:46;23.50;59.20
53073;DHT22;38955;48.916;2.336;2023-06-04T10:46:49;23.70;58.80
53073;DHT22;38955;48.916;2.336;2023-06-04T10:48:52;23.70;58.50
53073;DHT22;38955;48.916;2.336;2023-06-04T10:50:55;23.80;58.30
53073;DHT22;38955;48.916;2.336;2023-06-04T10:52:57;23.80;57.70
53073;DHT22;38955;48.916;2.336;2023-06-04T10:55:03;23.60;58.60
53073;DHT22;38955;48.916;2.336;2023-06-04T10:57:10;23.80;59.40
53073;DHT22;38955;48.916;2.336;2023-06-04T10:59:15;23.80;59.00
53073;DHT22;38955;48.916;2.336;2023-06-04T11:01:23;23.70;58.60
53073;DHT22;38955;48.916;2.336;2023-06-04T11:03:35;23.90;58.70
53073;DHT22;38955;48.916;2.336;2023-06-04T11:05:39;24.10;57.40
53073;DHT22;38955;48.916;2.336;2023-06-04T11:07:42;24.10;57.10
53073;DHT22;38955;48.916;2.336;2023-06-04T11:09:48;24.00;57.40
53073;DHT22;38955;48.916;2.336;2023-06-04T11:11:57;23.90;57.00
53073;DHT22;38955;48.916;2.336;2023-06-04T11:14:07;23.90;57.60
53073;DHT22;38955;48.916;2.336;2023-06-04T11:16:21;23.90;57.70
53073;DHT22;38955;48.916;2.336;2023-06-04T11:18:23;23.90;57.70
53073;DHT22;38955;48.916;2.336;2023-06-04T11:20:26;23.90;58.00
53073;DHT22;38955;48.916;2.336;2023-06-04T11:22:28;23.90;59.00
53073;DHT22;38955;48.916;2.336;2023-06-04T11:24:31;24.00;58.20
53073;DHT22;38955;48.916;2.336;2023-06-04T11:26:35;24.10;57.80
53073;DHT22;38955;48.916;2.336;2023-06-04T11:28:41;24.20;56.60
53073;DHT22;38955;48.916;2.336;2023-06-04T11:30:55;24.20;56.20
53073;DHT22;38955;48.916;2.336;2023-06-04T11:33:03;24.00;56.20
53073;DHT22;38955;48.916;2.336;2023-06-04T11:35:06;24.00;54.60
53073;DHT22;38955;48.916;2.336;2023-06-04T11:37:09;23.90;54.40
53073;DHT22;38955;48.916;2.336;2023-06-04T11:39:11;24.00;55.50
53073;DHT22;38955;48.916;2.336;2023-06-04T11:41:14;24.10;56.10
53073;DHT22;38955;48.916;2.336;2023-06-04T11:43:16;24.20;56.50
53073;DHT22;38955;48.916;2.336;2023-06-04T11:45:20;24.10;56.60
53073;DHT22;38955;48.916;2.336;2023-06-04T11:47:22;24.10;57.40
53073;DHT22;38955;48.916;2.336;2023-06-04T11:49:27;24.10;57.10
53073;DHT22;38955;48.916;2.336;2023-06-04T11:51:30;24.20;57.50
53073;DHT22;38955;48.916;2.336;2023-06-04T11:53:32;24.20;57.70
53073;DHT22;38955;48.916;2.336;2023-06-04T11:55:35;24.40;55.60
53073;DHT22;38955;48.916;2.336;2023-06-04T11:57:40;24.50;55.30
53073;DHT22;38955;48.916;2.336;2023-06-04T11:59:43;24.30;54.70
53073;DHT22;38955;48.916;2.336;2023-06-04T12:01:46;24.30;55.30
53073;DHT22;38955;48.916;2.336;2023-06-04T12:03:48;24.40;55.40
53073;DHT22;38955;48.916;2.336;2023-06-04T12:05:52;24.40;55.30
53073;DHT22;38955;48.916;2.336;2023-06-04T12:08:04;24.40;56.10
53073;DHT22;38955;48.916;2.336;2023-06-04T12:10:07;24.60;56.50
53073;DHT22;38955;48.916;2.336;2023-06-04T12:12:10;24.50;56.50
53073;DHT22;38955;48.916;2.336;2023-06-04T12:14:16;24.50;57.00
53073;DHT22;38955;48.916;2.336;2023-06-04T12:16:20;24.40;56.10
53073;DHT22;38955;48.916;2.336;2023-06-04T12:18:23;24.40;55.70
53073;DHT22;38955;48.916;2.336;2023-06-04T12:20:43;24.50;56.50
53073;DHT22;38955;48.916;2.336;2023-06-04T12:22:50;24.30;57.10
53073;DHT22;38955;48.916;2.336;2023-06-04T12:24:55;24.30;57.40
53073;DHT22;38955;48.916;2.336;2023-06-04T12:27:05;24.40;57.60
53073;DHT22;38955;48.916;2.336;2023-06-04T12:29:12;24.50;57.20
53073;DHT22;38955;48.916;2.336;2023-06-04T12:31:18;24.40;57.40
53073;DHT22;38955;48.916;2.336;2023-06-04T12:33:20;24.60;57.50
53073;DHT22;38955;48.916;2.336;2023-06-04T12:35:22;24.80;57.80
53073;DHT22;38955;48.916;2.336;2023-06-04T12:37:25;24.90;56.90
53073;DHT22;38955;48.916;2.336;2023-06-04T12:39:29;24.60;56.70
53073;DHT22;38955;48.916;2.336;2023-06-04T12:41:32;24.40;56.80
53073;DHT22;38955;48.916;2.336;2023-06-04T12:43:37;24.50;57.20
53073;DHT22;38955;48.916;2.336;2023-06-04T12:45:39;24.50;56.60
53073;DHT22;38955;48.916;2.336;2023-06-04T12:47:41;24.50;57.00
53073;DHT22;38955;48.916;2.336;2023-06-04T12:49:44;24.60;56.90
53073;DHT22;38955;48.916;2.336;2023-06-04T12:51:46;24.70;56.80
53073;DHT22;38955;48.916;2.336;2023-06-04T12:53:48;24.80;57.40
53073;DHT22;38955;48.916;2.336;2023-06-04T12:55:52;25.00;57.10
53073;DHT22;38955;48.916;2.336;2023-06-04T12:57:54;25.10;56.20
53073;DHT22;38955;48.916;2.336;2023-06-04T12:59:57;25.10;56.20